sensor_id;sensor_type;location;lat;lon;timestamp;P1;durP1;ratioP1;P2;durP2;ratioP2
64031;SDS011;50278;47.796;11.968;2023-02-12T00:02:14;4.72;;;3.13;;
64031;SDS011;50278;47.796;11.968;2023-02-12T00:04:40;5.57;;;3.25;;
64031;SDS011;50278;47.796;11.968;2023-02-12T00:07:05;5.22;;;3.42;;
64031;SDS011;50278;47.796;11.968;2023-02-12T00:09:31;4.80;;;2.88;;
64031;SDS011;50278;47.796;11.968;2023-02-12T00:11:57;4.93;;;3.20;;
64031;SDS011;50278;47.796;11.968;2023-02-12T00:14:22;4.13;;;3.05;;
64031;SDS011;50278;47.796;11.968;2023-02-12T00:16:48;5.28;;;3.30;;
64031;SDS011;50278;47.796;11.968;2023-02-12T00:19:13;4.07;;;2.95;;
64031;SDS011;50278;47.796;11.968;2023-02-12T00:21:39;4.10;;;2.97;;
64031;SDS011;50278;47.796;11.968;2023-02-12T00:24:04;6.25;;;3.22;;
64031;SDS011;50278;47.796;11.968;2023-02-12T00:26:30;6.32;;;3.60;;
64031;SDS011;50278;47.796;11.968;2023-02-12T00:28:56;4.78;;;3.20;;
64031;SDS011;50278;47.796;11.968;2023-02-12T00:31:22;4.97;;;3.17;;
64031;SDS011;50278;47.796;11.968;2023-02-12T00:33:50;4.57;;;2.90;;
64031;SDS011;50278;47.796;11.968;2023-02-12T00:36:17;4.95;;;3.40;;
64031;SDS011;50278;47.796;11.968;2023-02-12T00:38:45;5.63;;;3.25;;
64031;SDS011;50278;47.796;11.968;2023-02-12T00:41:11;5.13;;;3.35;;
64031;SDS011;50278;47.796;11.968;2023-02-12T00:43:37;5.00;;;3.38;;
64031;SDS011;50278;47.796;11.968;2023-02-12T00:46:03;5.05;;;3.35;;
64031;SDS011;50278;47.796;11.968;2023-02-12T00:48:31;4.75;;;3.35;;
64031;SDS011;50278;47.796;11.968;2023-02-12T00:50:57;6.07;;;3.70;;
64031;SDS011;50278;47.796;11.968;2023-02-12T00:53:22;4.70;;;3.78;;
64031;SDS011;50278;47.796;11.968;2023-02-12T00:55:48;6.15;;;3.85;;
64031;SDS011;50278;47.796;11.968;2023-02-12T00:58:13;7.43;;;4.30;;
64031;SDS011;50278;47.796;11.968;2023-02-12T01:00:41;6.38;;;3.70;;
64031;SDS011;50278;47.796;11.968;2023-02-12T01:03:07;5.15;;;3.38;;
64031;SDS011;50278;47.796;11.968;2023-02-12T01:05:32;7.30;;;3.83;;
64031;SDS011;50278;47.796;11.968;2023-02-12T01:07:58;6.15;;;3.40;;
64031;SDS011;50278;47.796;11.968;2023-02-12T01:10:24;4.78;;;3.13;;
64031;SDS011;50278;47.796;11.968;2023-02-12T01:12:50;6.03;;;4.03;;
64031;SDS011;50278;47.796;11.968;2023-02-12T01:15:16;8.57;;;4.22;;
64031;SDS011;50278;47.796;11.968;2023-02-12T01:17:42;5.18;;;3.67;;
64031;SDS011;50278;47.796;11.968;2023-02-12T01:20:09;6.07;;;4.03;;
64031;SDS011;50278;47.796;11.968;2023-02-12T01:22:37;6.32;;;4.00;;
64031;SDS011;50278;47.796;11.968;2023-02-12T01:25:04;7.20;;;4.53;;
64031;SDS011;50278;47.796;11.968;2023-02-12T01:27:30;6.07;;;4.10;;
64031;SDS011;50278;47.796;11.968;2023-02-12T01:29:56;8.88;;;4.80;;
64031;SDS011;50278;47.796;11.968;2023-02-12T01:32:22;6.40;;;4.10;;
64031;SDS011;50278;47.796;11.968;2023-02-12T01:34:47;13.27;;;4.65;;
64031;SDS011;50278;47.796;11.968;2023-02-12T01:37:13;7.43;;;4.53;;
64031;SDS011;50278;47.796;11.968;2023-02-12T01:39:39;5.35;;;3.90;;
64031;SDS011;50278;47.796;11.968;2023-02-12T01:42:04;6.35;;;4.20;;
64031;SDS011;50278;47.796;11.968;2023-02-12T01:44:31;5.63;;;4.25;;
64031;SDS011;50278;47.796;11.968;2023-02-12T01:47:03;5.93;;;3.85;;
64031;SDS011;50278;47.796;11.968;2023-02-12T01:52:04;7.35;;;4.70;;
64031;SDS011;50278;47.796;11.968;2023-02-12T01:54:37;6.45;;;4.80;;
64031;SDS011;50278;47.796;11.968;2023-02-12T01:57:03;5.20;;;3.78;;
64031;SDS011;50278;47.796;11.968;2023-02-12T01:59:30;6.25;;;3.95;;
64031;SDS011;50278;47.796;11.968;2023-02-12T02:01:58;7.63;;;4.35;;
64031;SDS011;50278;47.796;11.968;2023-02-12T02:04:26;5.65;;;4.05;;
64031;SDS011;50278;47.796;11.968;2023-02-12T02:07:03;4.72;;;3.70;;
64031;SDS011;50278;47.796;11.968;2023-02-12T02:09:30;7.90;;;4.55;;
64031;SDS011;50278;47.796;11.968;2023-02-12T02:11:59;5.57;;;4.20;;
64031;SDS011;50278;47.796;11.968;2023-02-12T02:14:44;6.88;;;4.30;;
64031;SDS011;50278;47.796;11.968;2023-02-12T02:20:00;6.60;;;4.65;;
64031;SDS011;50278;47.796;11.968;2023-02-12T02:31:46;5.57;;;3.90;;
64031;SDS011;50278;47.796;11.968;2023-02-12T02:34:18;5.20;;;3.50;;
64031;SDS011;50278;47.796;11.968;2023-02-12T02:37:17;4.30;;;3.20;;
64031;SDS011;50278;47.796;11.968;2023-02-12T02:39:56;8.40;;;3.97;;
64031;SDS011;50278;47.796;11.968;2023-02-12T02:42:28;5.57;;;4.07;;
64031;SDS011;50278;47.796;11.968;2023-02-12T02:47:53;5.32;;;3.28;;
64031;SDS011;50278;47.796;11.968;2023-02-12T02:50:22;5.93;;;4.00;;
64031;SDS011;50278;47.796;11.968;2023-02-12T02:55:29;5.78;;;3.88;;
64031;SDS011;50278;47.796;11.968;2023-02-12T02:58:02;6.25;;;4.15;;
64031;SDS011;50278;47.796;11.968;2023-02-12T03:00:43;5.70;;;3.88;;
64031;SDS011;50278;47.796;11.968;2023-02-12T03:03:23;6.53;;;4.20;;
64031;SDS011;50278;47.796;11.968;2023-02-12T03:06:13;6.40;;;4.28;;
64031;SDS011;50278;47.796;11.968;2023-02-12T03:08:51;6.93;;;4.72;;
64031;SDS011;50278;47.796;11.968;2023-02-12T03:11:23;6.60;;;4.65;;
64031;SDS011;50278;47.796;11.968;2023-02-12T03:13:54;8.07;;;4.55;;
64031;SDS011;50278;47.796;11.968;2023-02-12T03:16:27;8.38;;;4.63;;
64031;SDS011;50278;47.796;11.968;2023-02-12T03:19:02;7.53;;;5.33;;
64031;SDS011;50278;47.796;11.968;2023-02-12T03:21:49;7.10;;;4.95;;
64031;SDS011;50278;47.796;11.968;2023-02-12T03:24:28;7.97;;;5.50;;
64031;SDS011;50278;47.796;11.968;2023-02-12T03:27:07;6.55;;;4.78;;
64031;SDS011;50278;47.796;11.968;2023-02-12T03:29:37;6.13;;;4.05;;
64031;SDS011;50278;47.796;11.968;2023-02-12T03:37:39;7.10;;;3.90;;
64031;SDS011;50278;47.796;11.968;2023-02-12T03:40:31;7.07;;;4.78;;
64031;SDS011;50278;47.796;11.968;2023-02-12T03:43:03;6.43;;;4.25;;
64031;SDS011;50278;47.796;11.968;2023-02-12T03:48:07;5.50;;;4.28;;
64031;SDS011;50278;47.796;11.968;2023-02-12T03:50:52;6.97;;;4.35;;
64031;SDS011;50278;47.796;11.968;2023-02-12T03:53:33;8.00;;;4.70;;
64031;SDS011;50278;47.796;11.968;2023-02-12T03:56:01;5.35;;;3.88;;
64031;SDS011;50278;47.796;11.968;2023-02-12T03:58:33;5.72;;;4.03;;
64031;SDS011;50278;47.796;11.968;2023-02-12T04:01:01;7.00;;;4.50;;
64031;SDS011;50278;47.796;11.968;2023-02-12T04:03:28;7.03;;;4.13;;
64031;SDS011;50278;47.796;11.968;2023-02-12T04:05:54;6.35;;;3.75;;
64031;SDS011;50278;47.796;11.968;2023-02-12T04:08:19;5.80;;;3.85;;
64031;SDS011;50278;47.796;11.968;2023-02-12T04:13:25;7.28;;;4.40;;
64031;SDS011;50278;47.796;11.968;2023-02-12T04:18:42;9.43;;;5.93;;
64031;SDS011;50278;47.796;11.968;2023-02-12T04:24:22;8.98;;;6.43;;
64031;SDS011;50278;47.796;11.968;2023-02-12T04:26:59;6.45;;;4.40;;
64031;SDS011;50278;47.796;11.968;2023-02-12T04:40:33;7.07;;;4.60;;
64031;SDS011;50278;47.796;11.968;2023-02-12T04:42:59;5.97;;;4.53;;
64031;SDS011;50278;47.796;11.968;2023-02-12T04:45:26;6.78;;;5.00;;
64031;SDS011;50278;47.796;11.968;2023-02-12T04:50:22;6.82;;;5.03;;
64031;SDS011;50278;47.796;11.968;2023-02-12T04:52:48;5.93;;;4.18;;
64031;SDS011;50278;47.796;11.968;2023-02-12T04:55:14;8.35;;;4.85;;
64031;SDS011;50278;47.796;11.968;2023-02-12T04:57:39;7.35;;;4.78;;
64031;SDS011;50278;47.796;11.968;2023-02-12T05:00:05;6.25;;;4.30;;
64031;SDS011;50278;47.796;11.968;2023-02-12T05:02:32;7.57;;;5.18;;
64031;SDS011;50278;47.796;11.968;2023-02-12T05:04:58;7.18;;;5.00;;
64031;SDS011;50278;47.796;11.968;2023-02-12T05:07:24;6.45;;;5.07;;
64031;SDS011;50278;47.796;11.968;2023-02-12T05:09:49;7.50;;;4.82;;
64031;SDS011;50278;47.796;11.968;2023-02-12T05:12:15;8.18;;;5.60;;
64031;SDS011;50278;47.796;11.968;2023-02-12T05:14:40;6.47;;;4.82;;
64031;SDS011;50278;47.796;11.968;2023-02-12T05:17:06;8.80;;;5.32;;
64031;SDS011;50278;47.796;11.968;2023-02-12T05:19:32;7.35;;;5.43;;
64031;SDS011;50278;47.796;11.968;2023-02-12T05:21:57;7.82;;;5.43;;
64031;SDS011;50278;47.796;11.968;2023-02-12T05:24:23;7.82;;;5.20;;
64031;SDS011;50278;47.796;11.968;2023-02-12T05:26:49;9.00;;;6.03;;
64031;SDS011;50278;47.796;11.968;2023-02-12T05:29:15;7.57;;;5.75;;
64031;SDS011;50278;47.796;11.968;2023-02-12T05:31:41;6.68;;;5.10;;
64031;SDS011;50278;47.796;11.968;2023-02-12T05:34:08;8.23;;;5.10;;
64031;SDS011;50278;47.796;11.968;2023-02-12T05:36:35;7.72;;;5.40;;
64031;SDS011;50278;47.796;11.968;2023-02-12T05:39:00;6.65;;;4.78;;
64031;SDS011;50278;47.796;11.968;2023-02-12T05:41:26;8.27;;;5.18;;
64031;SDS011;50278;47.796;11.968;2023-02-12T05:43:52;8.10;;;5.40;;
64031;SDS011;50278;47.796;11.968;2023-02-12T05:46:18;7.57;;;5.53;;
64031;SDS011;50278;47.796;11.968;2023-02-12T05:48:45;8.32;;;5.78;;
64031;SDS011;50278;47.796;11.968;2023-02-12T05:51:12;10.63;;;6.07;;
64031;SDS011;50278;47.796;11.968;2023-02-12T05:53:40;9.82;;;6.60;;
64031;SDS011;50278;47.796;11.968;2023-02-12T05:58:37;8.45;;;6.35;;
64031;SDS011;50278;47.796;11.968;2023-02-12T06:01:02;8.90;;;5.72;;
64031;SDS011;50278;47.796;11.968;2023-02-12T06:03:32;7.32;;;5.75;;
64031;SDS011;50278;47.796;11.968;2023-02-12T06:05:58;8.02;;;5.85;;
64031;SDS011;50278;47.796;11.968;2023-02-12T06:08:23;7.63;;;5.32;;
64031;SDS011;50278;47.796;11.968;2023-02-12T06:10:49;8.32;;;5.97;;
64031;SDS011;50278;47.796;11.968;2023-02-12T06:13:14;9.55;;;6.10;;
64031;SDS011;50278;47.796;11.968;2023-02-12T06:15:40;7.50;;;5.35;;
64031;SDS011;50278;47.796;11.968;2023-02-12T06:18:05;9.25;;;5.90;;
64031;SDS011;50278;47.796;11.968;2023-02-12T06:20:31;7.85;;;5.32;;
64031;SDS011;50278;47.796;11.968;2023-02-12T06:22:56;7.55;;;5.05;;
64031;SDS011;50278;47.796;11.968;2023-02-12T06:25:22;8.05;;;5.10;;
64031;SDS011;50278;47.796;11.968;2023-02-12T06:27:47;8.43;;;5.68;;
64031;SDS011;50278;47.796;11.968;2023-02-12T06:30:13;9.20;;;6.13;;
64031;SDS011;50278;47.796;11.968;2023-02-12T06:32:39;9.52;;;6.18;;
64031;SDS011;50278;47.796;11.968;2023-02-12T06:35:04;9.85;;;6.05;;
64031;SDS011;50278;47.796;11.968;2023-02-12T06:37:30;8.30;;;5.43;;
64031;SDS011;50278;47.796;11.968;2023-02-12T06:39:56;9.30;;;5.93;;
64031;SDS011;50278;47.796;11.968;2023-02-12T06:42:22;11.07;;;6.63;;
64031;SDS011;50278;47.796;11.968;2023-02-12T06:44:47;7.75;;;5.30;;
64031;SDS011;50278;47.796;11.968;2023-02-12T06:47:13;9.15;;;5.72;;
64031;SDS011;50278;47.796;11.968;2023-02-12T06:49:38;9.60;;;6.15;;
64031;SDS011;50278;47.796;11.968;2023-02-12T06:52:04;7.88;;;5.90;;
64031;SDS011;50278;47.796;11.968;2023-02-12T06:54:29;8.35;;;5.40;;
64031;SDS011;50278;47.796;11.968;2023-02-12T06:56:55;7.82;;;5.72;;
64031;SDS011;50278;47.796;11.968;2023-02-12T06:59:20;16.45;;;6.40;;
64031;SDS011;50278;47.796;11.968;2023-02-12T07:01:46;9.68;;;6.20;;
64031;SDS011;50278;47.796;11.968;2023-02-12T07:04:11;10.13;;;7.40;;
64031;SDS011;50278;47.796;11.968;2023-02-12T07:06:37;11.65;;;7.72;;
64031;SDS011;50278;47.796;11.968;2023-02-12T07:09:03;11.93;;;7.65;;
64031;SDS011;50278;47.796;11.968;2023-02-12T07:11:31;14.35;;;7.35;;
64031;SDS011;50278;47.796;11.968;2023-02-12T07:14:00;10.57;;;7.30;;
64031;SDS011;50278;47.796;11.968;2023-02-12T07:16:26;10.60;;;7.13;;
64031;SDS011;50278;47.796;11.968;2023-02-12T07:18:53;10.85;;;7.30;;
64031;SDS011;50278;47.796;11.968;2023-02-12T07:21:28;8.90;;;6.10;;
64031;SDS011;50278;47.796;11.968;2023-02-12T07:24:05;8.75;;;5.85;;
64031;SDS011;50278;47.796;11.968;2023-02-12T07:26:30;14.82;;;9.95;;
64031;SDS011;50278;47.796;11.968;2023-02-12T07:28:56;12.20;;;7.93;;
64031;SDS011;50278;47.796;11.968;2023-02-12T07:31:23;11.60;;;7.97;;
64031;SDS011;50278;47.796;11.968;2023-02-12T07:33:52;9.77;;;6.70;;
64031;SDS011;50278;47.796;11.968;2023-02-12T07:36:37;9.93;;;6.32;;
64031;SDS011;50278;47.796;11.968;2023-02-12T07:39:03;11.13;;;7.05;;
64031;SDS011;50278;47.796;11.968;2023-02-12T07:41:29;9.02;;;6.32;;
64031;SDS011;50278;47.796;11.968;2023-02-12T07:44:04;10.80;;;6.28;;
64031;SDS011;50278;47.796;11.968;2023-02-12T07:46:32;8.98;;;6.05;;
64031;SDS011;50278;47.796;11.968;2023-02-12T07:49:00;8.77;;;6.20;;
64031;SDS011;50278;47.796;11.968;2023-02-12T07:51:28;10.75;;;5.78;;
64031;SDS011;50278;47.796;11.968;2023-02-12T07:53:54;8.23;;;5.45;;
64031;SDS011;50278;47.796;11.968;2023-02-12T07:56:22;9.10;;;7.03;;
64031;SDS011;50278;47.796;11.968;2023-02-12T07:58:49;10.10;;;6.40;;
64031;SDS011;50278;47.796;11.968;2023-02-12T08:03:50;11.55;;;7.00;;
64031;SDS011;50278;47.796;11.968;2023-02-12T08:06:18;13.73;;;8.18;;
64031;SDS011;50278;47.796;11.968;2023-02-12T08:08:46;10.68;;;8.38;;
64031;SDS011;50278;47.796;11.968;2023-02-12T08:11:12;12.73;;;9.73;;
64031;SDS011;50278;47.796;11.968;2023-02-12T08:13:39;14.38;;;8.40;;
64031;SDS011;50278;47.796;11.968;2023-02-12T08:16:06;12.60;;;8.60;;
64031;SDS011;50278;47.796;11.968;2023-02-12T08:18:34;8.60;;;7.00;;
64031;SDS011;50278;47.796;11.968;2023-02-12T08:21:01;8.23;;;5.97;;
64031;SDS011;50278;47.796;11.968;2023-02-12T08:23:27;10.13;;;5.90;;
64031;SDS011;50278;47.796;11.968;2023-02-12T08:25:53;10.68;;;6.57;;
64031;SDS011;50278;47.796;11.968;2023-02-12T08:28:19;8.13;;;6.22;;
64031;SDS011;50278;47.796;11.968;2023-02-12T08:30:44;7.13;;;5.80;;
64031;SDS011;50278;47.796;11.968;2023-02-12T08:33:10;10.35;;;6.93;;
64031;SDS011;50278;47.796;11.968;2023-02-12T08:35:35;8.52;;;6.45;;
64031;SDS011;50278;47.796;11.968;2023-02-12T08:38:01;8.35;;;7.18;;
64031;SDS011;50278;47.796;11.968;2023-02-12T08:40:26;10.25;;;7.72;;
64031;SDS011;50278;47.796;11.968;2023-02-12T08:42:52;8.98;;;7.43;;
64031;SDS011;50278;47.796;11.968;2023-02-12T08:45:18;13.32;;;8.13;;
64031;SDS011;50278;47.796;11.968;2023-02-12T08:47:43;10.82;;;7.63;;
64031;SDS011;50278;47.796;11.968;2023-02-12T08:50:11;10.20;;;7.88;;
64031;SDS011;50278;47.796;11.968;2023-02-12T08:52:37;9.18;;;6.70;;
64031;SDS011;50278;47.796;11.968;2023-02-12T08:55:02;8.20;;;6.57;;
64031;SDS011;50278;47.796;11.968;2023-02-12T08:57:27;8.90;;;6.40;;
64031;SDS011;50278;47.796;11.968;2023-02-12T08:59:53;7.70;;;5.95;;
64031;SDS011;50278;47.796;11.968;2023-02-12T09:02:18;7.90;;;6.38;;
64031;SDS011;50278;47.796;11.968;2023-02-12T09:04:44;12.50;;;7.00;;
64031;SDS011;50278;47.796;11.968;2023-02-12T09:07:09;10.85;;;6.85;;
64031;SDS011;50278;47.796;11.968;2023-02-12T09:09:35;8.52;;;7.00;;
64031;SDS011;50278;47.796;11.968;2023-02-12T09:12:00;12.88;;;7.13;;
64031;SDS011;50278;47.796;11.968;2023-02-12T09:14:26;12.50;;;6.90;;
64031;SDS011;50278;47.796;11.968;2023-02-12T09:16:52;9.05;;;6.88;;
64031;SDS011;50278;47.796;11.968;2023-02-12T09:19:18;9.60;;;7.38;;
64031;SDS011;50278;47.796;11.968;2023-02-12T09:21:44;7.82;;;6.18;;
64031;SDS011;50278;47.796;11.968;2023-02-12T09:24:09;8.52;;;6.53;;
64031;SDS011;50278;47.796;11.968;2023-02-12T09:26:35;8.88;;;6.43;;
64031;SDS011;50278;47.796;11.968;2023-02-12T09:29:01;9.60;;;6.35;;
64031;SDS011;50278;47.796;11.968;2023-02-12T09:31:28;10.15;;;6.22;;
64031;SDS011;50278;47.796;11.968;2023-02-12T09:33:57;9.10;;;6.53;;
64031;SDS011;50278;47.796;11.968;2023-02-12T09:36:24;8.70;;;6.80;;
64031;SDS011;50278;47.796;11.968;2023-02-12T09:38:49;8.88;;;6.35;;
64031;SDS011;50278;47.796;11.968;2023-02-12T09:41:29;10.07;;;7.30;;
64031;SDS011;50278;47.796;11.968;2023-02-12T09:44:26;8.77;;;7.05;;
64031;SDS011;50278;47.796;11.968;2023-02-12T09:47:04;9.85;;;7.43;;
64031;SDS011;50278;47.796;11.968;2023-02-12T09:52:47;9.15;;;6.68;;
64031;SDS011;50278;47.796;11.968;2023-02-12T09:55:15;9.40;;;6.90;;
64031;SDS011;50278;47.796;11.968;2023-02-12T09:57:43;8.52;;;7.22;;
64031;SDS011;50278;47.796;11.968;2023-02-12T10:00:27;9.85;;;7.53;;
64031;SDS011;50278;47.796;11.968;2023-02-12T10:02:55;12.73;;;7.65;;
64031;SDS011;50278;47.796;11.968;2023-02-12T10:05:28;8.15;;;6.15;;
64031;SDS011;50278;47.796;11.968;2023-02-12T10:10:32;8.85;;;7.32;;
64031;SDS011;50278;47.796;11.968;2023-02-12T10:27:38;10.18;;;7.30;;
64031;SDS011;50278;47.796;11.968;2023-02-12T10:30:13;10.55;;;8.05;;
64031;SDS011;50278;47.796;11.968;2023-02-12T10:32:41;10.50;;;7.95;;
64031;SDS011;50278;47.796;11.968;2023-02-12T10:35:14;8.85;;;6.80;;
64031;SDS011;50278;47.796;11.968;2023-02-12T10:40:20;8.07;;;6.90;;
64031;SDS011;50278;47.796;11.968;2023-02-12T10:42:51;10.38;;;8.43;;
64031;SDS011;50278;47.796;11.968;2023-02-12T10:45:19;10.18;;;7.03;;
64031;SDS011;50278;47.796;11.968;2023-02-12T10:47:50;24.00;;;16.83;;
64031;SDS011;50278;47.796;11.968;2023-02-12T10:53:08;10.02;;;8.45;;
64031;SDS011;50278;47.796;11.968;2023-02-12T10:55:43;9.27;;;6.97;;
64031;SDS011;50278;47.796;11.968;2023-02-12T10:58:20;8.77;;;7.50;;
64031;SDS011;50278;47.796;11.968;2023-02-12T11:00:54;9.68;;;6.88;;
64031;SDS011;50278;47.796;11.968;2023-02-12T11:03:22;10.52;;;6.90;;
64031;SDS011;50278;47.796;11.968;2023-02-12T11:05:52;9.10;;;7.00;;
64031;SDS011;50278;47.796;11.968;2023-02-12T11:08:34;10.15;;;7.60;;
64031;SDS011;50278;47.796;11.968;2023-02-12T11:11:04;14.25;;;10.60;;
64031;SDS011;50278;47.796;11.968;2023-02-12T11:13:32;11.35;;;7.03;;
64031;SDS011;50278;47.796;11.968;2023-02-12T11:15:59;8.88;;;7.30;;
64031;SDS011;50278;47.796;11.968;2023-02-12T11:18:29;12.30;;;7.32;;
64031;SDS011;50278;47.796;11.968;2023-02-12T11:21:07;10.43;;;7.60;;
64031;SDS011;50278;47.796;11.968;2023-02-12T11:23:36;7.78;;;6.60;;
64031;SDS011;50278;47.796;11.968;2023-02-12T11:26:19;9.05;;;6.70;;
64031;SDS011;50278;47.796;11.968;2023-02-12T11:28:51;13.57;;;9.13;;
64031;SDS011;50278;47.796;11.968;2023-02-12T11:31:22;10.90;;;7.90;;
64031;SDS011;50278;47.796;11.968;2023-02-12T11:36:35;11.40;;;7.25;;
64031;SDS011;50278;47.796;11.968;2023-02-12T11:39:03;10.55;;;8.50;;
64031;SDS011;50278;47.796;11.968;2023-02-12T11:41:35;9.65;;;7.60;;
64031;SDS011;50278;47.796;11.968;2023-02-12T11:44:25;8.60;;;7.70;;
64031;SDS011;50278;47.796;11.968;2023-02-12T11:46:55;8.43;;;7.22;;
64031;SDS011;50278;47.796;11.968;2023-02-12T11:49:31;9.63;;;8.10;;
64031;SDS011;50278;47.796;11.968;2023-02-12T11:51:59;9.60;;;8.45;;
64031;SDS011;50278;47.796;11.968;2023-02-12T11:54:27;9.18;;;7.97;;
64031;SDS011;50278;47.796;11.968;2023-02-12T11:56:56;7.95;;;7.10;;
64031;SDS011;50278;47.796;11.968;2023-02-12T11:59:31;10.60;;;8.30;;
64031;SDS011;50278;47.796;11.968;2023-02-12T12:02:15;8.80;;;7.50;;
64031;SDS011;50278;47.796;11.968;2023-02-12T12:04:48;8.98;;;7.90;;
64031;SDS011;50278;47.796;11.968;2023-02-12T12:07:29;8.73;;;7.82;;
64031;SDS011;50278;47.796;11.968;2023-02-12T12:10:06;9.73;;;7.72;;
64031;SDS011;50278;47.796;11.968;2023-02-12T12:12:44;8.45;;;6.95;;
64031;SDS011;50278;47.796;11.968;2023-02-12T12:18:36;10.25;;;8.27;;
64031;SDS011;50278;47.796;11.968;2023-02-12T12:21:44;8.75;;;7.82;;
64031;SDS011;50278;47.796;11.968;2023-02-12T12:27:03;9.00;;;7.60;;
64031;SDS011;50278;47.796;11.968;2023-02-12T12:29:57;9.70;;;7.65;;
64031;SDS011;50278;47.796;11.968;2023-02-12T12:32:30;9.52;;;7.90;;
64031;SDS011;50278;47.796;11.968;2023-02-12T12:35:00;9.45;;;8.02;;
64031;SDS011;50278;47.796;11.968;2023-02-12T12:37:40;8.35;;;7.35;;
64031;SDS011;50278;47.796;11.968;2023-02-12T12:43:11;8.02;;;7.10;;
64031;SDS011;50278;47.796;11.968;2023-02-12T12:56:22;10.10;;;7.15;;
64031;SDS011;50278;47.796;11.968;2023-02-12T12:59:12;8.07;;;7.13;;
64031;SDS011;50278;47.796;11.968;2023-02-12T13:04:36;7.45;;;6.75;;
64031;SDS011;50278;47.796;11.968;2023-02-12T13:13:17;7.25;;;6.22;;
64031;SDS011;50278;47.796;11.968;2023-02-12T13:18:48;6.82;;;6.07;;
64031;SDS011;50278;47.796;11.968;2023-02-12T13:21:33;6.80;;;6.10;;
64031;SDS011;50278;47.796;11.968;2023-02-12T13:24:21;7.78;;;6.47;;
64031;SDS011;50278;47.796;11.968;2023-02-12T13:26:58;6.38;;;5.78;;
64031;SDS011;50278;47.796;11.968;2023-02-12T13:29:34;7.13;;;6.22;;
64031;SDS011;50278;47.796;11.968;2023-02-12T13:34:31;7.07;;;5.82;;
64031;SDS011;50278;47.796;11.968;2023-02-12T13:37:00;7.35;;;5.90;;
64031;SDS011;50278;47.796;11.968;2023-02-12T13:44:34;7.13;;;5.78;;
64031;SDS011;50278;47.796;11.968;2023-02-12T13:47:29;5.63;;;5.13;;
64031;SDS011;50278;47.796;11.968;2023-02-12T13:52:58;5.70;;;5.20;;
64031;SDS011;50278;47.796;11.968;2023-02-12T13:55:38;6.72;;;5.32;;
64031;SDS011;50278;47.796;11.968;2023-02-12T13:58:37;5.70;;;5.20;;
64031;SDS011;50278;47.796;11.968;2023-02-12T14:01:04;6.57;;;5.97;;
64031;SDS011;50278;47.796;11.968;2023-02-12T14:03:34;6.70;;;6.03;;
64031;SDS011;50278;47.796;11.968;2023-02-12T14:06:12;5.85;;;5.35;;
64031;SDS011;50278;47.796;11.968;2023-02-12T14:08:43;9.68;;;5.97;;
64031;SDS011;50278;47.796;11.968;2023-02-12T14:11:20;5.75;;;5.25;;
64031;SDS011;50278;47.796;11.968;2023-02-12T14:13:53;6.10;;;5.60;;
64031;SDS011;50278;47.796;11.968;2023-02-12T14:22:00;6.38;;;5.78;;
64031;SDS011;50278;47.796;11.968;2023-02-12T14:37:57;4.60;;;4.20;;
64031;SDS011;50278;47.796;11.968;2023-02-12T14:43:02;6.07;;;5.50;;
64031;SDS011;50278;47.796;11.968;2023-02-12T14:45:33;5.63;;;5.13;;
64031;SDS011;50278;47.796;11.968;2023-02-12T14:48:01;5.68;;;5.18;;
64031;SDS011;50278;47.796;11.968;2023-02-12T14:50:35;5.07;;;4.60;;
64031;SDS011;50278;47.796;11.968;2023-02-12T14:53:12;5.15;;;4.40;;
64031;SDS011;50278;47.796;11.968;2023-02-12T14:55:52;4.88;;;4.43;;
64031;SDS011;50278;47.796;11.968;2023-02-12T14:58:21;4.60;;;4.05;;
64031;SDS011;50278;47.796;11.968;2023-02-12T15:00:50;4.88;;;4.32;;
64031;SDS011;50278;47.796;11.968;2023-02-12T15:03:26;4.57;;;4.07;;
64031;SDS011;50278;47.796;11.968;2023-02-12T15:06:18;5.47;;;4.78;;
64031;SDS011;50278;47.796;11.968;2023-02-12T15:08:51;5.00;;;4.47;;
64031;SDS011;50278;47.796;11.968;2023-02-12T15:14:19;5.07;;;4.57;;
64031;SDS011;50278;47.796;11.968;2023-02-12T15:21:44;5.82;;;4.65;;
64031;SDS011;50278;47.796;11.968;2023-02-12T15:24:13;4.85;;;4.35;;
64031;SDS011;50278;47.796;11.968;2023-02-12T15:26:48;6.85;;;4.70;;
64031;SDS011;50278;47.796;11.968;2023-02-12T15:29:29;6.05;;;4.60;;
64031;SDS011;50278;47.796;11.968;2023-02-12T15:32:23;7.75;;;4.78;;
64031;SDS011;50278;47.796;11.968;2023-02-12T15:34:51;5.85;;;4.80;;
64031;SDS011;50278;47.796;11.968;2023-02-12T15:37:19;5.82;;;4.72;;
64031;SDS011;50278;47.796;11.968;2023-02-12T15:39:57;6.95;;;5.32;;
64031;SDS011;50278;47.796;11.968;2023-02-12T15:42:26;7.68;;;6.00;;
64031;SDS011;50278;47.796;11.968;2023-02-12T15:47:41;6.53;;;5.72;;
64031;SDS011;50278;47.796;11.968;2023-02-12T15:50:15;6.97;;;5.68;;
64031;SDS011;50278;47.796;11.968;2023-02-12T15:52:42;8.98;;;6.63;;
64031;SDS011;50278;47.796;11.968;2023-02-12T15:55:15;10.45;;;7.20;;
64031;SDS011;50278;47.796;11.968;2023-02-12T15:57:47;7.97;;;5.93;;
64031;SDS011;50278;47.796;11.968;2023-02-12T16:00:39;7.38;;;5.63;;
64031;SDS011;50278;47.796;11.968;2023-02-12T16:03:03;8.05;;;5.30;;
64031;SDS011;50278;47.796;11.968;2023-02-12T16:05:29;8.88;;;6.35;;
64031;SDS011;50278;47.796;11.968;2023-02-12T16:07:55;9.38;;;6.75;;
64031;SDS011;50278;47.796;11.968;2023-02-12T16:10:22;10.90;;;6.70;;
64031;SDS011;50278;47.796;11.968;2023-02-12T16:12:48;9.38;;;6.28;;
64031;SDS011;50278;47.796;11.968;2023-02-12T16:15:31;9.35;;;6.50;;
64031;SDS011;50278;47.796;11.968;2023-02-12T16:17:59;8.27;;;5.60;;
64031;SDS011;50278;47.796;11.968;2023-02-12T16:20:28;8.80;;;6.53;;
64031;SDS011;50278;47.796;11.968;2023-02-12T16:22:55;10.15;;;6.72;;
64031;SDS011;50278;47.796;11.968;2023-02-12T16:25:28;7.75;;;6.07;;
64031;SDS011;50278;47.796;11.968;2023-02-12T16:28:06;11.60;;;7.53;;
64031;SDS011;50278;47.796;11.968;2023-02-12T16:30:41;11.32;;;8.45;;
64031;SDS011;50278;47.796;11.968;2023-02-12T16:36:31;13.25;;;10.77;;
64031;SDS011;50278;47.796;11.968;2023-02-12T16:46:36;10.15;;;7.32;;
64031;SDS011;50278;47.796;11.968;2023-02-12T16:49:13;12.18;;;8.18;;
64031;SDS011;50278;47.796;11.968;2023-02-12T16:51:41;11.63;;;8.07;;
64031;SDS011;50278;47.796;11.968;2023-02-12T16:54:27;9.85;;;7.03;;
64031;SDS011;50278;47.796;11.968;2023-02-12T16:56:55;10.43;;;7.15;;
64031;SDS011;50278;47.796;11.968;2023-02-12T16:59:21;10.48;;;7.03;;
64031;SDS011;50278;47.796;11.968;2023-02-12T17:02:00;9.40;;;6.88;;
64031;SDS011;50278;47.796;11.968;2023-02-12T17:04:37;10.05;;;6.68;;
64031;SDS011;50278;47.796;11.968;2023-02-12T17:07:02;11.55;;;6.93;;
64031;SDS011;50278;47.796;11.968;2023-02-12T17:09:28;13.13;;;8.20;;
64031;SDS011;50278;47.796;11.968;2023-02-12T17:11:56;28.33;;;21.35;;
64031;SDS011;50278;47.796;11.968;2023-02-12T17:14:22;14.23;;;11.10;;
64031;SDS011;50278;47.796;11.968;2023-02-12T17:16:47;8.90;;;6.32;;
64031;SDS011;50278;47.796;11.968;2023-02-12T17:19:13;9.93;;;7.55;;
64031;SDS011;50278;47.796;11.968;2023-02-12T17:21:40;11.90;;;7.28;;
64031;SDS011;50278;47.796;11.968;2023-02-12T17:24:13;8.68;;;6.93;;
64031;SDS011;50278;47.796;11.968;2023-02-12T17:26:43;9.63;;;7.13;;
64031;SDS011;50278;47.796;11.968;2023-02-12T17:29:09;8.93;;;6.50;;
64031;SDS011;50278;47.796;11.968;2023-02-12T17:31:34;9.05;;;7.10;;
64031;SDS011;50278;47.796;11.968;2023-02-12T17:34:00;11.23;;;7.22;;
64031;SDS011;50278;47.796;11.968;2023-02-12T17:36:26;9.27;;;5.82;;
64031;SDS011;50278;47.796;11.968;2023-02-12T17:38:51;10.05;;;6.50;;